sim
Sign-in with your pilot id or email,
or register
Callsign
Passwort

Schedule Details

Flight Number: DLH2344 (2)
Departure: Munich Airport (EDDM) at 14:25
Arrival: Graz Airport (LOWG) at 15:15
Route: Lufthansa Passenger Schedule. Enter filed route here before submitting Pirep.

Weather Information
Getting current METAR information for EDDM 250550Z 18005KT 9999 -RA FEW030 13/11 Q1000 NOSIG
Getting current METAR information for LOWG 250550Z 13003KT 100V190 9999 -RA BKN007 OVC070 15/14 Q1000 TEMPO SCT007 BKN070

Schedule Frequency

Route Map